Nelson, New Zealand
Current Conditions -  °F | °C
As of 3:00 AM on Sunday 26 Oct 2014 (Local Time) from NZWN Reporting Station
Few Clouds Few Clouds  
Wind Chill: 54°   Ceiling: Unl
Heat Index: 54°   Visibility: 6mi
Dew Point: 41°   Wind: 30mph
Humidity: 62%   Direction: 360°N
Pressure: 29.94"   Gusts: 41mph
Location:  41.27°S, 173.28°E
Report Text: NZWN 251500Z AUTO 36026G36KT 9999 FEW030/// 12/05 Q1014 NOSIG
Loading
Personal Weather Stations






























Interactive Weather Map
Tropical Storm Tracking
New forecast layout! Learn more

10-Day Weather Forecast

Advertisements
Track Severe Weather on mobile